Time;durP1;ratioP1;P1;durP2;ratioP2;P2;SDS_P1;SDS_P2;PMS_P1;PMS_P2;Temp;Humidity;BMP_temperature;BMP_pressure;BME280_temperature;BME280_humidity;BME280_pressure;Samples;Min_cycle;Max_cycle;Signal;HPM_P1;HPM_P2
2023/07/17 00:00:57;;;;;;;0.73;0.73;;;23.00;99.90;;;;;;5042842;28;20114;-73
2023/07/17 00:03:24;;;;;;;0.30;0.30;;;23.10;99.90;;;;;;5042748;28;20021;-79
2023/07/17 00:05:51;;;;;;;0.10;0.10;;;23.30;99.90;;;;;;5042674;28;20698;-74
2023/07/17 00:08:17;;;;;;;0.20;0.20;;;23.20;99.90;;;;;;5042591;28;20021;-77
2023/07/17 00:10:44;;;;;;;0.90;0.65;;;23.40;99.90;;;;;;5042577;28;20314;-74
2023/07/17 00:13:09;;;;;;;0.10;0.10;;;23.70;99.90;;;;;;5041140;28;20120;-74
2023/07/17 00:15:35;;;;;;;0.10;0.10;;;24.40;99.90;;;;;;5042763;28;20444;-74
2023/07/17 00:18:01;;;;;;;0.40;0.40;;;23.60;99.90;;;;;;5039412;28;20263;-73
2023/07/17 00:20:27;;;;;;;0.00;0.00;;;23.80;99.90;;;;;;5039493;28;20316;-74
2023/07/17 00:22:52;;;;;;;0.25;0.25;;;23.80;99.90;;;;;;5039640;28;20072;-80
2023/07/17 00:25:18;;;;;;;1.00;1.00;;;23.80;99.90;;;;;;5039623;28;20329;-75
2023/07/17 00:27:44;;;;;;;0.10;0.10;;;23.80;99.90;;;;;;5038114;28;20396;-82
2023/07/17 00:30:10;;;;;;;0.65;0.65;;;24.00;99.90;;;;;;5039391;28;20021;-75
2023/07/17 00:32:36;;;;;;;1.45;0.85;;;23.60;99.90;;;;;;5037846;28;20244;-74
2023/07/17 00:35:01;;;;;;;0.13;0.13;;;23.50;99.90;;;;;;5039214;28;20025;-73
2023/07/17 00:37:27;;;;;;;0.30;0.30;;;23.60;99.90;;;;;;5037970;28;20021;-74
2023/07/17 00:39:53;;;;;;;0.20;0.20;;;23.30;99.90;;;;;;5039144;28;20396;-83
2023/07/17 00:42:19;;;;;;;0.35;0.35;;;23.30;99.90;;;;;;5039198;28;20522;-76
2023/07/17 00:44:45;;;;;;;0.10;0.10;;;23.10;99.90;;;;;;5039255;28;20029;-74
2023/07/17 00:47:10;;;;;;;0.10;0.10;;;23.20;99.90;;;;;;5038865;28;20013;-74
2023/07/17 00:49:37;;;;;;;0.10;0.10;;;23.20;99.90;;;;;;5039112;28;20095;-75
2023/07/17 00:52:04;;;;;;;0.68;0.68;;;23.20;99.90;;;;;;5039134;28;20209;-74
2023/07/17 00:54:32;;;;;;;0.13;0.13;;;23.40;99.90;;;;;;5038999;28;20558;-74
2023/07/17 00:56:59;;;;;;;1.20;1.20;;;23.20;99.90;;;;;;5038816;28;20510;-75
2023/07/17 00:59:25;;;;;;;0.10;0.10;;;23.80;99.90;;;;;;5038942;28;20497;-74
2023/07/17 01:01:51;;;;;;;0.50;0.50;;;22.60;99.90;;;;;;5038791;28;20025;-74
2023/07/17 01:04:17;;;;;;;0.10;0.10;;;22.30;99.90;;;;;;5038825;28;20399;-81
2023/07/17 01:06:43;;;;;;;0.00;0.00;;;22.10;99.90;;;;;;5039020;28;20328;-77
2023/07/17 01:09:11;;;;;;;0.20;0.20;;;22.30;99.90;;;;;;5038612;28;20029;-76
2023/07/17 01:11:38;;;;;;;0.10;0.10;;;18.80;99.90;;;;;;5038634;28;20032;-76
2023/07/17 01:14:04;;;;;;;0.40;0.40;;;;;;;;;;5038475;28;20206;-74
2023/07/17 01:16:30;;;;;;;0.20;0.20;;;22.40;99.90;;;;;;5038656;28;20028;-76
2023/07/17 01:18:55;;;;;;;0.10;0.10;;;22.20;99.90;;;;;;5038580;28;20419;-82
2023/07/17 01:21:26;;;;;;;0.10;0.10;;;22.10;99.90;;;;;;5038490;28;20017;-79
2023/07/17 01:23:54;;;;;;;0.10;0.10;;;21.50;99.90;;;;;;5038295;28;20036;-77
2023/07/17 01:26:20;;;;;;;0.13;0.13;;;22.20;99.90;;;;;;5038321;28;20032;-76
2023/07/17 01:28:46;;;;;;;0.10;0.10;;;22.00;99.90;;;;;;5037088;28;20435;-75
2023/07/17 01:31:12;;;;;;;1.27;1.23;;;22.30;99.90;;;;;;5038532;28;20347;-77
2023/07/17 01:33:38;;;;;;;0.22;0.22;;;22.30;99.90;;;;;;5036918;28;20150;-73
2023/07/17 01:36:05;;;;;;;0.10;0.10;;;22.50;99.90;;;;;;5038275;28;20021;-73
2023/07/17 01:38:33;;;;;;;0.13;0.13;;;22.70;99.90;;;;;;5036784;28;20032;-72
2023/07/17 01:40:59;;;;;;;0.20;0.20;;;22.90;99.90;;;;;;5038783;28;20106;-76
2023/07/17 01:43:25;;;;;;;0.10;0.10;;;23.10;99.90;;;;;;5039254;28;20063;-73
2023/07/17 01:45:51;;;;;;;0.10;0.10;;;22.70;99.90;;;;;;5039539;28;20119;-76
2023/07/17 01:48:17;;;;;;;0.20;0.20;;;23.20;99.90;;;;;;5038721;28;20142;-73
2023/07/17 01:50:44;;;;;;;0.45;0.45;;;23.30;99.90;;;;;;5038491;28;20687;-73
2023/07/17 01:53:11;;;;;;;0.13;0.13;;;23.20;99.90;;;;;;5038030;28;20028;-73
2023/07/17 01:55:37;;;;;;;0.10;0.10;;;23.10;99.90;;;;;;5038260;28;20491;-78
2023/07/17 01:58:03;;;;;;;0.10;0.10;;;23.20;99.90;;;;;;5037549;28;20049;-83
2023/07/17 02:00:28;;;;;;;0.10;0.10;;;23.20;99.90;;;;;;5037633;28;20025;-75
2023/07/17 02:02:54;;;;;;;0.10;0.10;;;23.40;99.90;;;;;;5037789;28;20031;-74
2023/07/17 02:05:20;;;;;;;0.00;0.00;;;23.50;99.90;;;;;;5037361;28;20056;-76
2023/07/17 02:07:46;;;;;;;0.25;0.25;;;23.50;99.90;;;;;;5037670;28;20013;-77
2023/07/17 02:10:12;;;;;;;3.53;1.25;;;23.70;99.90;;;;;;5037732;28;20029;-73
2023/07/17 02:12:38;;;;;;;0.30;0.30;;;23.70;99.90;;;;;;5037380;28;20017;-74
2023/07/17 02:15:06;;;;;;;0.10;0.10;;;23.70;99.90;;;;;;5037366;28;20150;-74
2023/07/17 02:17:32;;;;;;;0.00;0.00;;;23.70;99.90;;;;;;5037636;28;20618;-73
2023/07/17 02:19:58;;;;;;;1.98;1.05;;;20.60;99.90;;;;;;5035999;28;20033;-76
2023/07/17 02:22:24;;;;;;;1.40;1.30;;;23.90;99.90;;;;;;5037318;28;20324;-74
2023/07/17 02:24:50;;;;;;;0.35;0.22;;;;;;;;;;5037247;28;20041;-78
2023/07/17 02:27:16;;;;;;;0.57;0.57;;;23.90;99.90;;;;;;5037101;28;20017;-76
2023/07/17 02:29:42;;;;;;;0.35;0.35;;;24.00;99.90;;;;;;5035662;28;20029;-74
2023/07/17 02:32:08;;;;;;;0.30;0.30;;;24.10;99.90;;;;;;5036966;28;20028;-76
2023/07/17 02:34:34;;;;;;;0.82;0.82;;;24.10;99.90;;;;;;5037266;28;20506;-80
2023/07/17 02:37:00;;;;;;;0.10;0.10;;;24.40;99.90;;;;;;5037437;28;20024;-74
2023/07/17 02:39:25;;;;;;;0.52;0.52;;;24.00;99.90;;;;;;5036987;28;20100;-77
2023/07/17 02:41:51;;;;;;;0.17;0.15;;;23.90;99.90;;;;;;5037212;28;20025;-76
2023/07/17 02:44:17;;;;;;;0.75;0.68;;;23.90;99.90;;;;;;5036730;28;20032;-81
2023/07/17 02:46:43;;;;;;;0.15;0.15;;;23.60;99.90;;;;;;5037567;28;20025;-77
2023/07/17 02:49:11;;;;;;;0.45;0.45;;;23.70;99.90;;;;;;5038074;28;20526;-80
2023/07/17 02:51:37;;;;;;;0.10;0.10;;;23.80;99.90;;;;;;5038095;28;20100;-74
2023/07/17 02:54:03;;;;;;;0.10;0.10;;;23.60;99.90;;;;;;5038399;28;20017;-79
2023/07/17 02:56:29;;;;;;;0.10;0.10;;;23.50;99.90;;;;;;5039829;28;20087;-74
2023/07/17 02:58:55;;;;;;;0.10;0.10;;;23.50;99.90;;;;;;5038697;28;20732;-76
2023/07/17 03:01:20;;;;;;;0.20;0.20;;;23.60;99.90;;;;;;5039019;28;20483;-73
2023/07/17 03:03:47;;;;;;;2.80;2.60;;;23.50;99.90;;;;;;5039478;28;20044;-75
2023/07/17 03:06:13;;;;;;;0.50;0.50;;;23.30;99.90;;;;;;5037985;28;20388;-75
2023/07/17 03:08:38;;;;;;;1.02;0.98;;;23.30;99.90;;;;;;5036852;28;20147;-80
2023/07/17 03:11:05;;;;;;;0.10;0.10;;;22.90;99.90;;;;;;5037302;28;20059;-76
2023/07/17 03:13:31;;;;;;;0.45;0.45;;;22.20;99.90;;;;;;5036914;28;20115;-74
2023/07/17 03:16:01;;;;;;;0.22;0.22;;;21.80;99.90;;;;;;5036908;28;20048;-76
2023/07/17 03:18:27;;;;;;;0.10;0.10;;;21.40;99.90;;;;;;5036876;28;20049;-77
2023/07/17 03:20:55;;;;;;;0.52;0.40;;;21.40;99.90;;;;;;5036602;28;20183;-74
2023/07/17 03:23:21;;;;;;;0.10;0.10;;;21.90;99.90;;;;;;5036794;28;20250;-74
2023/07/17 03:25:47;;;;;;;0.10;0.10;;;21.90;99.90;;;;;;5036941;28;20167;-78
2023/07/17 03:28:13;;;;;;;0.43;0.43;;;22.00;99.90;;;;;;5036947;28;20220;-76
2023/07/17 03:30:40;;;;;;;0.00;0.00;;;21.80;99.90;;;;;;5035052;28;20044;-74
2023/07/17 03:33:06;;;;;;;0.03;0.03;;;22.20;99.90;;;;;;5035373;28;20028;-81
2023/07/17 03:35:33;;;;;;;0.43;0.43;;;21.90;99.90;;;;;;5036612;28;20237;-73
2023/07/17 03:37:59;;;;;;;0.10;0.10;;;22.10;99.90;;;;;;5036610;28;20021;-79
2023/07/17 03:40:25;;;;;;;0.10;0.10;;;22.20;99.90;;;;;;5037053;28;20341;-74
2023/07/17 03:42:51;;;;;;;0.10;0.10;;;22.20;99.90;;;;;;5036823;28;20045;-74
2023/07/17 03:45:17;;;;;;;0.43;0.43;;;22.40;99.90;;;;;;5036627;28;20118;-80
2023/07/17 03:47:44;;;;;;;0.17;0.17;;;22.60;99.90;;;;;;5036658;28;20452;-73
2023/07/17 03:50:10;;;;;;;0.28;0.28;;;22.70;99.90;;;;;;5036616;28;20543;-76
2023/07/17 03:52:36;;;;;;;0.30;0.30;;;22.80;99.90;;;;;;5038228;28;20364;-75
2023/07/17 03:55:02;;;;;;;1.15;1.00;;;22.90;99.90;;;;;;5040584;28;20213;-77
2023/07/17 03:57:28;;;;;;;0.57;0.57;;;23.20;99.90;;;;;;5040438;28;20049;-76
2023/07/17 03:59:55;;;;;;;0.10;0.10;;;23.20;99.90;;;;;;5039190;28;20029;-77
2023/07/17 04:02:22;;;;;;;0.20;0.20;;;23.10;99.90;;;;;;5040320;28;20028;-76
2023/07/17 04:04:48;;;;;;;0.35;0.35;;;23.20;99.90;;;;;;5040489;28;20692;-74
2023/07/17 04:07:14;;;;;;;0.20;0.20;;;23.30;99.90;;;;;;5040364;28;20075;-77
2023/07/17 04:09:40;;;;;;;0.10;0.10;;;23.40;99.90;;;;;;5040173;28;20232;-75
2023/07/17 04:12:07;;;;;;;0.10;0.10;;;23.40;99.90;;;;;;5040399;28;20694;-76
2023/07/17 04:14:33;;;;;;;0.10;0.10;;;23.40;99.90;;;;;;5040089;28;20434;-79
2023/07/17 04:17:00;;;;;;;0.20;0.20;;;23.40;99.90;;;;;;5040029;28;20488;-74
2023/07/17 04:19:27;;;;;;;0.10;0.10;;;23.40;99.90;;;;;;5040091;28;20033;-81
2023/07/17 04:21:53;;;;;;;0.10;0.10;;;23.40;99.90;;;;;;5038187;28;20021;-74
2023/07/17 04:24:19;;;;;;;0.20;0.20;;;23.50;99.90;;;;;;5038403;28;20041;-73
2023/07/17 04:26:45;;;;;;;0.15;0.15;;;23.60;99.90;;;;;;5040519;28;20028;-74
2023/07/17 04:29:10;;;;;;;0.10;0.10;;;23.60;99.90;;;;;;5040625;28;20624;-75
2023/07/17 04:31:36;;;;;;;0.10;0.10;;;23.60;99.90;;;;;;5041377;28;20606;-75
2023/07/17 04:34:02;;;;;;;0.20;0.20;;;23.60;99.90;;;;;;5042331;28;20300;-78
2023/07/17 04:36:28;;;;;;;0.20;0.20;;;23.70;99.90;;;;;;5041014;28;20104;-79
2023/07/17 04:38:54;;;;;;;0.20;0.20;;;23.70;99.90;;;;;;5040069;28;20250;-74
2023/07/17 04:41:20;;;;;;;0.10;0.10;;;23.70;99.90;;;;;;5038306;28;20039;-74
2023/07/17 04:43:46;;;;;;;0.10;0.10;;;23.80;99.90;;;;;;5039391;28;20174;-73
2023/07/17 04:46:11;;;;;;;0.50;0.50;;;23.80;99.90;;;;;;5039345;28;20104;-75
2023/07/17 04:48:37;;;;;;;0.40;0.40;;;23.70;99.90;;;;;;5039356;28;20010;-75
2023/07/17 04:51:03;;;;;;;0.10;0.10;;;22.90;99.90;;;;;;5039337;28;20025;-74
2023/07/17 04:53:28;;;;;;;0.15;0.15;;;23.50;99.90;;;;;;5039280;28;20033;-74
2023/07/17 04:55:55;;;;;;;0.40;0.40;;;23.60;99.90;;;;;;5039317;28;20025;-80
2023/07/17 04:58:20;;;;;;;0.10;0.10;;;23.70;99.90;;;;;;5039442;28;20084;-74
2023/07/17 05:00:47;;;;;;;0.10;0.10;;;23.70;99.90;;;;;;5038913;28;20048;-75
2023/07/17 05:03:16;;;;;;;0.38;0.38;;;23.80;99.90;;;;;;5038584;28;20051;-83
2023/07/17 05:05:50;;;;;;;0.00;0.00;;;23.90;99.90;;;;;;5039199;28;20052;-76
2023/07/17 05:08:17;;;;;;;0.25;0.25;;;24.00;99.90;;;;;;5039069;28;20593;-74
2023/07/17 05:10:43;;;;;;;0.25;0.25;;;24.00;99.90;;;;;;5039349;28;20040;-75
2023/07/17 05:13:09;;;;;;;0.63;0.63;;;24.10;99.90;;;;;;5038836;28;20017;-75
2023/07/17 05:15:34;;;;;;;0.13;0.13;;;26.60;99.90;;;;;;5038767;28;20154;-75
2023/07/17 05:18:00;;;;;;;0.10;0.10;;;24.10;99.90;;;;;;5037737;28;20021;-77
2023/07/17 05:20:26;;;;;;;0.20;0.20;;;24.20;99.90;;;;;;5039005;28;20025;-74
2023/07/17 05:22:52;;;;;;;0.10;0.10;;;24.20;99.90;;;;;;5037461;28;20083;-74
2023/07/17 05:25:17;;;;;;;0.10;0.10;;;24.30;99.90;;;;;;5037561;28;20759;-76
2023/07/17 05:27:43;;;;;;;0.63;0.63;;;24.30;99.90;;;;;;5037329;28;20241;-74
2023/07/17 05:30:09;;;;;;;0.32;0.32;;;24.40;99.90;;;;;;5039269;28;20021;-74
2023/07/17 05:32:35;;;;;;;0.10;0.10;;;24.50;99.90;;;;;;5038709;28;20025;-73
2023/07/17 05:35:01;;;;;;;0.40;0.40;;;24.50;99.90;;;;;;5038208;28;20519;-74
2023/07/17 05:37:27;;;;;;;0.13;0.13;;;24.60;99.90;;;;;;5038152;28;20024;-73
2023/07/17 05:39:53;;;;;;;0.10;0.10;;;24.70;99.90;;;;;;5036473;28;20500;-75
2023/07/17 05:42:18;;;;;;;0.30;0.30;;;24.70;99.90;;;;;;5036843;28;20036;-80
2023/07/17 05:44:44;;;;;;;0.20;0.20;;;24.70;99.90;;;;;;5038003;28;20313;-76
2023/07/17 05:47:10;;;;;;;2.47;2.28;;;24.80;99.90;;;;;;5036033;28;20037;-75
2023/07/17 05:49:36;;;;;;;0.10;0.10;;;24.80;99.90;;;;;;5038059;28;20114;-77
2023/07/17 05:52:02;;;;;;;0.43;0.43;;;24.80;99.90;;;;;;5037835;28;20029;-74
2023/07/17 05:54:28;;;;;;;18.83;1.67;;;24.70;99.90;;;;;;5036109;28;20479;-75
2023/07/17 05:56:53;;;;;;;0.30;0.30;;;26.40;99.90;;;;;;5037406;28;20225;-74
2023/07/17 05:59:19;;;;;;;0.00;0.00;;;24.90;99.90;;;;;;5037277;28;20241;-73
2023/07/17 06:01:45;;;;;;;1.35;1.33;;;25.00;99.90;;;;;;5037360;28;20043;-76
2023/07/17 06:04:11;;;;;;;0.43;0.43;;;;;;;;;;5037252;28;20396;-73
2023/07/17 06:06:37;;;;;;;0.10;0.10;;;24.70;99.90;;;;;;5035856;28;20349;-77
2023/07/17 06:09:03;;;;;;;0.65;0.65;;;24.60;99.90;;;;;;5037487;28;20237;-74
2023/07/17 06:11:29;;;;;;;0.10;0.10;;;24.80;99.90;;;;;;5037347;28;20063;-74
2023/07/17 06:13:55;;;;;;;0.10;0.10;;;24.90;99.90;;;;;;5037311;28;20392;-76
2023/07/17 06:16:21;;;;;;;0.70;0.70;;;25.00;99.90;;;;;;5035322;28;20048;-77
2023/07/17 06:18:46;;;;;;;0.52;0.52;;;25.10;99.90;;;;;;5037655;28;20059;-74
2023/07/17 06:21:12;;;;;;;0.52;0.52;;;25.20;99.90;;;;;;5037764;28;20028;-74
2023/07/17 06:23:38;;;;;;;0.45;0.45;;;25.30;99.90;;;;;;5035561;28;20102;-75
2023/07/17 06:26:04;;;;;;;0.90;0.75;;;25.30;99.90;;;;;;5037485;28;20441;-74
2023/07/17 06:28:30;;;;;;;2.80;0.57;;;25.30;99.90;;;;;;5037384;28;20052;-76
2023/07/17 06:30:56;;;;;;;0.35;0.35;;;25.50;99.90;;;;;;5037087;28;20024;-75
2023/07/17 06:33:23;;;;;;;0.20;0.20;;;25.50;99.90;;;;;;5038114;28;20317;-76
2023/07/17 06:35:48;;;;;;;0.75;0.55;;;25.60;99.90;;;;;;5037464;28;20369;-73
2023/07/17 06:38:14;;;;;;;0.15;0.15;;;25.50;99.90;;;;;;5037044;28;20075;-73
2023/07/17 06:40:40;;;;;;;0.10;0.10;;;25.60;99.90;;;;;;5036856;28;20337;-73
2023/07/17 06:43:06;;;;;;;0.13;0.13;;;25.70;99.90;;;;;;5037403;28;20040;-78
2023/07/17 06:45:33;;;;;;;0.60;0.43;;;25.90;99.90;;;;;;5036565;28;20667;-78
2023/07/17 06:47:59;;;;;;;0.63;0.63;;;26.00;99.90;;;;;;5035888;28;20060;-74
2023/07/17 06:50:25;;;;;;;0.17;0.17;;;26.10;99.90;;;;;;5037238;28;20020;-73
2023/07/17 06:52:51;;;;;;;0.30;0.30;;;26.10;99.90;;;;;;5037449;28;20551;-78
2023/07/17 06:55:16;;;;;;;0.10;0.10;;;26.10;99.90;;;;;;5037384;28;20086;-74
2023/07/17 06:57:42;;;;;;;0.10;0.10;;;26.20;99.90;;;;;;5037410;28;20041;-74
2023/07/17 07:00:08;;;;;;;1.33;1.23;;;26.10;99.90;;;;;;5038397;28;20021;-78
2023/07/17 07:02:35;;;;;;;1.35;1.25;;;26.30;99.90;;;;;;5037050;28;20059;-75
2023/07/17 07:05:01;;;;;;;0.50;0.50;;;26.40;99.90;;;;;;5037789;28;20029;-80
2023/07/17 07:07:26;;;;;;;0.10;0.10;;;26.40;99.90;;;;;;5039021;28;20120;-78
2023/07/17 07:09:52;;;;;;;0.15;0.10;;;26.50;99.90;;;;;;5039909;28;20040;-77
2023/07/17 07:12:18;;;;;;;0.52;0.52;;;;;;;;;;5040394;28;20025;-74
2023/07/17 07:14:44;;;;;;;0.65;0.65;;;26.60;99.90;;;;;;5041106;28;20028;-73
2023/07/17 07:17:10;;;;;;;0.52;0.52;;;26.50;99.90;;;;;;5037333;28;20025;-75
2023/07/17 07:19:36;;;;;;;1.67;1.55;;;26.70;99.90;;;;;;5039283;28;20229;-74
2023/07/17 07:22:01;;;;;;;4.68;1.15;;;26.80;99.90;;;;;;5039005;28;20025;-79
2023/07/17 07:24:27;;;;;;;0.47;0.45;;;26.90;99.90;;;;;;5037866;28;20040;-74
2023/07/17 07:26:53;;;;;;;0.05;0.05;;;27.10;99.90;;;;;;5039828;28;20013;-74
2023/07/17 07:29:18;;;;;;;8.57;4.53;;;27.20;99.90;;;;;;5041243;28;20055;-74
2023/07/17 07:31:44;;;;;;;1.00;0.63;;;27.40;99.90;;;;;;5041741;28;20085;-74
2023/07/17 07:34:10;;;;;;;0.00;0.00;;;27.40;99.90;;;;;;5041888;28;20063;-75
2023/07/17 07:36:36;;;;;;;0.10;0.10;;;27.60;99.90;;;;;;5041252;28;20147;-75
2023/07/17 07:39:05;;;;;;;0.65;0.65;;;27.50;99.90;;;;;;5041304;28;20036;-74
2023/07/17 07:41:35;;;;;;;2.65;1.58;;;27.90;99.90;;;;;;5041829;28;20025;-75
2023/07/17 07:44:01;;;;;;;0.40;0.40;;;27.90;99.90;;;;;;5041948;28;20517;-80
2023/07/17 07:46:28;;;;;;;0.20;0.20;;;28.00;99.90;;;;;;5041692;28;20112;-74
2023/07/17 07:48:53;;;;;;;0.30;0.30;;;28.10;99.90;;;;;;5044961;28;20020;-74
2023/07/17 07:51:19;;;;;;;0.47;0.20;;;28.20;99.90;;;;;;5044034;28;20028;-75
2023/07/17 07:53:45;;;;;;;0.57;0.38;;;28.30;99.90;;;;;;5041086;28;20032;-74
2023/07/17 07:56:11;;;;;;;0.75;0.50;;;28.40;99.90;;;;;;5041033;28;20138;-75
2023/07/17 07:58:37;;;;;;;1.35;0.95;;;28.50;99.90;;;;;;5040667;28;20637;-75
2023/07/17 08:01:02;;;;;;;0.22;0.22;;;28.60;99.90;;;;;;5040632;28;20025;-85
2023/07/17 08:03:29;;;;;;;0.05;0.05;;;28.70;99.90;;;;;;5040784;28;20025;-77
2023/07/17 08:05:55;;;;;;;1.55;0.80;;;30.30;99.90;;;;;;5023236;28;20028;-79
2023/07/17 08:08:21;;;;;;;1.17;0.80;;;28.90;99.90;;;;;;5040719;28;20287;-74
2023/07/17 08:10:50;;;;;;;0.17;0.17;;;28.50;99.90;;;;;;5039351;28;20739;-77
2023/07/17 08:13:16;;;;;;;0.50;0.50;;;28.60;99.90;;;;;;5039686;28;20025;-86
2023/07/17 08:15:42;;;;;;;0.25;0.25;;;28.90;99.90;;;;;;5040728;28;20036;-76
2023/07/17 08:18:08;;;;;;;0.20;0.20;;;29.10;99.90;;;;;;5039309;28;20013;-78
2023/07/17 08:20:33;;;;;;;2.65;2.20;;;29.30;99.90;;;;;;5040814;28;20017;-84
2023/07/17 08:22:59;;;;;;;0.38;0.38;;;29.50;99.90;;;;;;5039660;28;20013;-75
2023/07/17 08:25:25;;;;;;;0.88;0.75;;;29.60;99.90;;;;;;5041027;28;20596;-75
2023/07/17 08:27:51;;;;;;;0.43;0.32;;;29.70;99.90;;;;;;5039207;28;20088;-77
2023/07/17 08:30:25;;;;;;;0.80;0.80;;;29.80;99.90;;;;;;5041638;28;20019;-84
2023/07/17 08:32:51;;;;;;;4.40;1.45;;;29.90;99.90;;;;;;5040492;28;20079;-74
2023/07/17 08:35:17;;;;;;;0.52;0.50;;;28.90;99.60;;;;;;5040858;28;20037;-75
2023/07/17 08:37:43;;;;;;;0.32;0.32;;;29.80;99.70;;;;;;5038407;28;20112;-76
2023/07/17 08:40:10;;;;;;;0.35;0.32;;;30.30;98.80;;;;;;5040677;28;20694;-79
2023/07/17 08:42:37;;;;;;;0.05;0.05;;;28.00;98.00;;;;;;5040682;28;20017;-80
2023/07/17 08:45:04;;;;;;;0.00;0.00;;;30.30;99.30;;;;;;5040876;28;20114;-81
2023/07/17 08:47:31;;;;;;;0.75;0.75;;;30.20;98.90;;;;;;5040522;28;20284;-77
2023/07/17 08:49:58;;;;;;;1.13;0.98;;;30.20;98.90;;;;;;5040353;28;20033;-81
2023/07/17 08:52:27;;;;;;;0.65;0.65;;;30.20;98.80;;;;;;5040229;28;20017;-86
2023/07/17 08:54:53;;;;;;;0.98;0.57;;;30.40;98.90;;;;;;5040830;28;20029;-75
2023/07/17 08:57:19;;;;;;;0.65;0.65;;;30.60;98.70;;;;;;5040476;28;20174;-77
2023/07/17 08:59:46;;;;;;;0.38;0.38;;;30.70;98.30;;;;;;5039057;28;20021;-78
2023/07/17 09:02:11;;;;;;;1.10;0.82;;;30.80;98.80;;;;;;5039432;28;20013;-81
2023/07/17 09:04:37;;;;;;;0.25;0.25;;;30.70;98.40;;;;;;5038957;28;20068;-76
2023/07/17 09:07:03;;;;;;;0.20;0.20;;;31.20;99.10;;;;;;5039174;28;20017;-82
2023/07/17 09:09:29;;;;;;;1.13;0.95;;;30.60;98.40;;;;;;5040436;28;20021;-77
2023/07/17 09:12:09;;;;;;;0.43;0.40;;;30.50;98.50;;;;;;5040131;28;20651;-75
2023/07/17 09:14:36;;;;;;;1.05;0.85;;;30.80;98.70;;;;;;5038752;28;20033;-76
2023/07/17 09:17:07;;;;;;;1.55;0.80;;;30.60;98.90;;;;;;5040411;28;20070;-81
2023/07/17 09:19:34;;;;;;;0.68;0.68;;;30.80;98.60;;;;;;5038887;28;20024;-77
2023/07/17 09:22:05;;;;;;;1.35;1.25;;;30.80;98.40;;;;;;5040000;28;20013;-76
2023/07/17 09:24:37;;;;;;;1.30;0.32;;;31.00;98.70;;;;;;5039811;28;20174;-80
2023/07/17 09:27:06;;;;;;;0.10;0.10;;;31.10;98.40;;;;;;5038816;28;20021;-76
2023/07/17 09:29:33;;;;;;;3.28;1.80;;;31.30;98.20;;;;;;5037537;28;20403;-75
2023/07/17 09:32:15;;;;;;;0.43;0.32;;;31.50;97.90;;;;;;5038392;28;20288;-74
2023/07/17 09:34:41;;;;;;;1.50;1.17;;;31.80;97.70;;;;;;5038334;28;20032;-78
2023/07/17 09:37:10;;;;;;;1.00;0.57;;;32.00;97.20;;;;;;5038849;28;20025;-73
2023/07/17 09:39:38;;;;;;;1.42;1.33;;;32.10;97.10;;;;;;5036890;28;20706;-83
2023/07/17 09:42:20;;;;;;;2.45;1.13;;;32.30;97.20;;;;;;5038440;28;20023;-81
2023/07/17 09:44:47;;;;;;;0.57;0.57;;;32.40;96.40;;;;;;5037977;28;20794;-79
2023/07/17 09:47:13;;;;;;;0.20;0.20;;;32.40;96.40;;;;;;5039348;28;20100;-83
2023/07/17 09:49:39;;;;;;;0.52;0.45;;;32.50;96.80;;;;;;5037783;28;20171;-77
2023/07/17 09:52:05;;;;;;;1.38;1.13;;;32.70;96.00;;;;;;5039919;28;20502;-80
2023/07/17 09:54:33;;;;;;;0.88;0.73;;;31.50;95.40;;;;;;5041331;28;20028;-75
2023/07/17 09:56:59;;;;;;;1.13;1.08;;;33.00;95.20;;;;;;5039066;28;20021;-77
2023/07/17 09:59:31;;;;;;;0.75;0.55;;;32.80;95.70;;;;;;5038280;28;20797;-75
2023/07/17 10:01:59;;;;;;;1.23;1.13;;;32.70;95.60;;;;;;5039770;28;20021;-79
2023/07/17 10:04:36;;;;;;;1.33;1.23;;;32.80;95.80;;;;;;5042081;28;20029;-78
2023/07/17 10:07:03;;;;;;;4.82;2.67;;;32.80;95.50;;;;;;5040036;28;20033;-75
2023/07/17 10:09:37;;;;;;;0.38;0.38;;;32.80;95.00;;;;;;5040165;28;20252;-76
2023/07/17 10:12:04;;;;;;;2.15;1.20;;;32.80;94.90;;;;;;5038582;28;20063;-76
2023/07/17 10:14:31;;;;;;;0.32;0.32;;;32.90;94.70;;;;;;5039394;28;20530;-78
2023/07/17 10:16:56;;;;;;;0.25;0.25;;;33.00;94.40;;;;;;5039408;28;20012;-78
2023/07/17 10:19:26;;;;;;;2.00;1.40;;;32.80;95.00;;;;;;5039401;28;20013;-76
2023/07/17 10:21:57;;;;;;;1.00;0.73;;;33.20;94.80;;;;;;5038778;28;20679;-75
2023/07/17 10:24:24;;;;;;;0.80;0.38;;;33.50;93.50;;;;;;5038842;28;20107;-75
2023/07/17 10:26:50;;;;;;;0.10;0.10;;;33.50;93.20;;;;;;5039961;28;20222;-77
2023/07/17 10:29:39;;;;;;;0.88;0.88;;;33.50;93.50;;;;;;5039609;28;20562;-78
2023/07/17 10:32:14;;;;;;;2.30;0.68;;;33.70;93.10;;;;;;5038283;28;20021;-75
2023/07/17 10:34:50;;;;;;;0.95;0.95;;;33.80;92.70;;;;;;5037265;28;20132;-78
2023/07/17 10:37:28;;;;;;;1.55;0.65;;;34.00;92.80;;;;;;5038433;28;20634;-82
2023/07/17 10:40:04;;;;;;;1.15;0.80;;;34.10;92.60;;;;;;5037204;28;20659;-79
2023/07/17 10:42:32;;;;;;;0.70;0.68;;;34.50;92.00;;;;;;5038450;28;20164;-79
2023/07/17 10:45:10;;;;;;;0.32;0.32;;;34.60;91.60;;;;;;5038330;28;20021;-75
2023/07/17 10:47:36;;;;;;;0.60;0.60;;;34.40;91.00;;;;;;5038163;28;20202;-75
2023/07/17 10:50:03;;;;;;;0.13;0.13;;;35.00;90.70;;;;;;5038030;28;20806;-74
2023/07/17 10:52:33;;;;;;;0.75;0.68;;;34.90;88.30;;;;;;5036839;28;20017;-75
2023/07/17 10:55:03;;;;;;;0.10;0.10;;;35.00;82.30;;;;;;5036575;28;20105;-75
2023/07/17 10:57:29;;;;;;;0.43;0.30;;;35.00;81.10;;;;;;5036752;28;20033;-83
2023/07/17 10:59:56;;;;;;;0.40;0.20;;;35.20;81.50;;;;;;5037588;28;20028;-74
2023/07/17 11:02:25;;;;;;;1.45;0.57;;;35.40;83.20;;;;;;5038046;28;20021;-76
2023/07/17 11:04:58;;;;;;;1.13;0.57;;;35.50;81.50;;;;;;5036732;28;20562;-78
2023/07/17 11:07:24;;;;;;;0.30;0.30;;;35.40;80.80;;;;;;5038092;28;20017;-78
2023/07/17 11:09:50;;;;;;;0.38;0.38;;;35.60;71.20;;;;;;5038013;28;20100;-77
2023/07/17 11:12:19;;;;;;;3.20;0.98;;;35.70;73.30;;;;;;5038364;28;20052;-77
2023/07/17 11:14:45;;;;;;;1.63;0.93;;;35.90;73.40;;;;;;5036210;28;20056;-76
2023/07/17 11:17:12;;;;;;;1.42;0.32;;;36.00;72.40;;;;;;5037750;28;20061;-76
2023/07/17 11:19:37;;;;;;;0.20;0.20;;;36.20;73.00;;;;;;5037618;28;20209;-79
2023/07/17 11:22:04;;;;;;;0.43;0.43;;;36.10;63.60;;;;;;5036645;28;20663;-77
2023/07/17 11:24:30;;;;;;;0.08;0.08;;;36.40;64.70;;;;;;5038028;28;20574;-76
2023/07/17 11:26:58;;;;;;;2.50;0.80;;;36.80;65.80;;;;;;5037597;28;20466;-81
2023/07/17 11:29:24;;;;;;;1.75;1.65;;;37.10;68.00;;;;;;5037677;28;20046;-76
2023/07/17 11:31:57;;;;;;;0.45;0.40;;;37.20;66.10;;;;;;5037648;28;20021;-80
2023/07/17 11:34:23;;;;;;;0.32;0.20;;;37.60;66.50;;;;;;5037627;28;20017;-77
2023/07/17 11:36:49;;;;;;;0.40;0.40;;;37.70;64.60;;;;;;5037670;28;20079;-78
2023/07/17 11:39:24;;;;;;;0.40;0.20;;;38.00;66.10;;;;;;5037209;28;20029;-76
2023/07/17 11:41:55;;;;;;;1.58;1.48;;;37.90;65.80;;;;;;5037152;28;20067;-77
2023/07/17 11:44:32;;;;;;;0.80;0.70;;;38.90;66.00;;;;;;5037749;28;20032;-76
2023/07/17 11:47:06;;;;;;;0.40;0.40;;;38.30;65.00;;;;;;5037387;28;20021;-79
2023/07/17 11:49:34;;;;;;;0.20;0.20;;;38.60;64.20;;;;;;5037946;28;20678;-76
2023/07/17 11:52:00;;;;;;;0.50;0.50;;;38.60;65.80;;;;;;5036624;28;20056;-76
2023/07/17 11:54:46;;;;;;;1.38;0.93;;;39.00;64.00;;;;;;5036238;28;20040;-84
2023/07/17 11:57:12;;;;;;;0.22;0.22;;;39.50;63.50;;;;;;5037186;28;20033;-76
2023/07/17 11:59:38;;;;;;;0.98;0.85;;;40.00;63.20;;;;;;5037382;28;20567;-76
2023/07/17 12:02:04;;;;;;;0.38;0.38;;;40.20;62.50;;;;;;5037670;28;20642;-79
2023/07/17 12:04:39;;;;;;;0.30;0.30;;;41.10;61.30;;;;;;5037057;28;20025;-79
2023/07/17 12:07:05;;;;;;;0.35;0.35;;;41.40;61.10;;;;;;5037508;28;20279;-78
2023/07/17 12:09:31;;;;;;;0.43;0.43;;;41.80;60.40;;;;;;5037072;28;20055;-76
2023/07/17 12:11:57;;;;;;;1.17;0.88;;;41.60;60.50;;;;;;5036115;28;20056;-76
2023/07/17 12:14:23;;;;;;;0.65;0.52;;;41.20;60.40;;;;;;5040055;28;20021;-74
2023/07/17 12:16:48;;;;;;;1.02;0.90;;;41.20;60.20;;;;;;5041327;28;20106;-72
2023/07/17 12:19:15;;;;;;;0.45;0.45;;;40.80;60.10;;;;;;5040957;28;20035;-76
2023/07/17 12:21:41;;;;;;;0.65;0.63;;;40.80;58.30;;;;;;5039831;28;20064;-78
2023/07/17 12:24:07;;;;;;;3.40;0.47;;;40.70;58.40;;;;;;5040679;28;20033;-75
2023/07/17 12:26:33;;;;;;;0.50;0.40;;;41.00;59.40;;;;;;5040422;28;20028;-78
2023/07/17 12:28:58;;;;;;;0.45;0.32;;;41.20;58.90;;;;;;5040354;28;20549;-76
2023/07/17 12:31:24;;;;;;;0.60;0.60;;;40.90;58.40;;;;;;5040904;28;20143;-81
2023/07/17 12:33:50;;;;;;;0.43;0.25;;;41.90;59.40;;;;;;5039589;28;20353;-78
2023/07/17 12:36:16;;;;;;;0.55;0.40;;;42.00;57.40;;;;;;5040522;28;20016;-76
2023/07/17 12:38:42;;;;;;;0.52;0.47;;;41.90;58.20;;;;;;5042696;28;20036;-80
2023/07/17 12:41:07;;;;;;;1.30;0.55;;;41.90;57.80;;;;;;5044909;28;20021;-76
2023/07/17 12:43:33;;;;;;;0.22;0.20;;;42.40;58.50;;;;;;5046785;28;20025;-77
2023/07/17 12:45:59;;;;;;;0.52;0.35;;;42.10;57.70;;;;;;5048598;28;20120;-78